createdAt,value
2022-12-07T00:01:32.735Z,9.50
2022-12-07T00:04:05.678Z,9.60
2022-12-07T00:06:38.445Z,8.80
2022-12-07T00:09:07.764Z,9.63
2022-12-07T00:11:35.467Z,10.63
2022-12-07T00:14:06.712Z,10.80
2022-12-07T00:16:34.709Z,10.20
2022-12-07T00:19:03.360Z,9.97
2022-12-07T00:21:33.869Z,8.70
2022-12-07T00:24:02.052Z,8.67
2022-12-07T00:26:31.614Z,9.43
2022-12-07T00:29:08.407Z,10.87
2022-12-07T00:31:40.010Z,9.33
2022-12-07T00:34:19.574Z,10.27
2022-12-07T00:36:46.932Z,9.47
2022-12-07T00:39:14.146Z,10.60
2022-12-07T00:41:41.092Z,9.70
2022-12-07T00:44:08.042Z,10.07
2022-12-07T00:46:35.252Z,9.27
2022-12-07T00:49:02.167Z,11.17
2022-12-07T00:51:29.582Z,10.73
2022-12-07T00:53:56.931Z,9.70
2022-12-07T00:56:29.215Z,9.50
2022-12-07T00:58:58.733Z,11.83
2022-12-07T01:01:28.137Z,9.70
2022-12-07T01:03:55.620Z,11.10
2022-12-07T01:06:24.383Z,10.17
2022-12-07T01:08:51.854Z,11.60
2022-12-07T01:11:23.462Z,10.80
2022-12-07T01:13:56.267Z,10.67
2022-12-07T01:16:25.552Z,11.23
2022-12-07T01:18:54.839Z,10.90
2022-12-07T01:21:25.315Z,11.30
2022-12-07T01:23:53.352Z,10.63
2022-12-07T01:26:24.276Z,10.80
2022-12-07T01:28:52.561Z,9.67
2022-12-07T01:31:21.854Z,13.27
2022-12-07T01:33:52.240Z,11.03
2022-12-07T01:36:30.907Z,11.33
2022-12-07T01:39:01.178Z,10.47
2022-12-07T01:41:32.097Z,10.43
2022-12-07T01:44:27.940Z,9.90
2022-12-07T01:47:03.773Z,10.30
2022-12-07T01:49:42.991Z,11.67
2022-12-07T01:52:31.221Z,10.33
2022-12-07T01:55:02.674Z,10.20
2022-12-07T01:57:32.037Z,12.00
2022-12-07T01:59:59.573Z,11.50
2022-12-07T02:02:58.415Z,10.57
2022-12-07T02:05:27.417Z,9.50
2022-12-07T02:07:57.138Z,11.97
2022-12-07T02:10:32.084Z,11.20
2022-12-07T02:13:16.824Z,11.07
2022-12-07T02:16:13.380Z,11.60
2022-12-07T02:19:11.213Z,9.47
2022-12-07T02:22:01.147Z,11.00
2022-12-07T02:24:50.560Z,10.43
2022-12-07T02:27:33.890Z,10.37
2022-12-07T02:30:09.335Z,11.93
2022-12-07T02:32:55.476Z,11.47
2022-12-07T02:35:33.497Z,10.27
2022-12-07T02:38:09.643Z,10.80
2022-12-07T02:40:55.622Z,12.47
2022-12-07T02:43:29.184Z,11.00
2022-12-07T02:46:00.895Z,12.70
2022-12-07T02:48:29.216Z,10.20
2022-12-07T02:50:56.221Z,13.17
2022-12-07T02:53:36.332Z,11.30
2022-12-07T02:56:14.451Z,12.13
2022-12-07T02:59:10.659Z,9.37
2022-12-07T03:01:52.194Z,12.40
2022-12-07T03:04:28.680Z,12.90
2022-12-07T03:07:05.521Z,11.73
2022-12-07T03:09:42.297Z,11.57
2022-12-07T03:12:24.475Z,11.23
2022-12-07T03:15:07.259Z,12.60
2022-12-07T03:17:37.578Z,11.17
2022-12-07T03:20:10.556Z,12.70
2022-12-07T03:22:40.121Z,11.57
2022-12-07T03:25:11.462Z,10.53
2022-12-07T03:27:47.149Z,10.20
2022-12-07T03:30:20.781Z,11.30
2022-12-07T03:33:07.346Z,11.33
2022-12-07T03:36:01.624Z,11.37
2022-12-07T03:38:39.220Z,12.70
2022-12-07T03:41:12.265Z,11.03
2022-12-07T03:43:40.251Z,11.73
2022-12-07T03:46:21.132Z,11.80
2022-12-07T03:49:09.566Z,12.60
2022-12-07T03:52:08.079Z,11.57
2022-12-07T03:54:41.660Z,12.43
2022-12-07T03:57:10.140Z,10.60
2022-12-07T03:59:39.449Z,13.13
2022-12-07T04:02:08.581Z,9.53
2022-12-07T04:04:36.244Z,9.40
2022-12-07T04:07:03.828Z,11.77
2022-12-07T04:09:30.841Z,11.10
2022-12-07T04:11:57.827Z,11.37
2022-12-07T04:14:24.791Z,12.50
2022-12-07T04:16:57.419Z,12.40
2022-12-07T04:19:30.585Z,13.10
2022-12-07T04:21:59.709Z,13.47
2022-12-07T04:24:27.027Z,12.80
2022-12-07T04:26:54.633Z,14.60
2022-12-07T04:29:22.502Z,12.00
2022-12-07T04:31:50.617Z,14.40
2022-12-07T04:34:18.549Z,12.73
2022-12-07T04:36:46.845Z,11.33
2022-12-07T04:39:27.727Z,12.27
2022-12-07T04:41:55.672Z,11.13
2022-12-07T04:44:23.271Z,11.90
2022-12-07T04:46:51.065Z,10.80
2022-12-07T04:49:19.290Z,9.83
2022-12-07T04:51:47.195Z,11.80
2022-12-07T04:54:15.728Z,12.03
2022-12-07T04:56:43.606Z,12.63
2022-12-07T04:59:12.281Z,11.07
2022-12-07T05:01:40.213Z,11.47
2022-12-07T05:04:07.704Z,10.50
2022-12-07T05:06:35.327Z,10.50
2022-12-07T05:09:03.768Z,9.80
2022-12-07T05:11:40.669Z,11.30
2022-12-07T05:14:13.116Z,10.33
2022-12-07T05:16:41.680Z,11.50
2022-12-07T05:19:09.598Z,9.40
2022-12-07T05:21:37.937Z,10.20
2022-12-07T05:24:06.458Z,9.00
2022-12-07T05:26:35.399Z,9.77
2022-12-07T05:29:03.398Z,9.40
2022-12-07T05:31:30.795Z,10.87
2022-12-07T05:33:58.167Z,8.73
2022-12-07T05:36:25.550Z,10.03
2022-12-07T05:38:52.946Z,10.50
2022-12-07T05:41:39.667Z,10.27
2022-12-07T05:44:07.389Z,8.03
2022-12-07T05:46:35.210Z,8.80
2022-12-07T05:49:02.993Z,9.30
2022-12-07T05:51:30.328Z,10.50
2022-12-07T05:53:57.728Z,8.53
2022-12-07T05:56:25.359Z,9.80
2022-12-07T05:59:11.125Z,10.23
2022-12-07T06:01:38.582Z,12.77
2022-12-07T06:04:05.928Z,13.57
2022-12-07T06:06:33.379Z,11.07
2022-12-07T06:09:00.723Z,11.77
2022-12-07T06:11:46.651Z,13.43
2022-12-07T06:14:14.162Z,11.87
2022-12-07T06:16:41.917Z,12.90
2022-12-07T06:19:09.356Z,12.10
2022-12-07T06:21:36.692Z,13.30
2022-12-07T06:24:04.242Z,13.37
2022-12-07T06:26:31.692Z,12.60
2022-12-07T06:28:59.112Z,12.27
2022-12-07T06:31:26.667Z,13.37
2022-12-07T06:34:08.611Z,11.93
2022-12-07T06:36:36.047Z,12.10
2022-12-07T06:39:03.736Z,12.10
2022-12-07T06:41:31.203Z,12.60
2022-12-07T06:43:58.516Z,11.10
2022-12-07T06:46:26.433Z,11.87
2022-12-07T06:48:53.734Z,12.97
2022-12-07T06:51:21.055Z,13.53
2022-12-07T06:53:48.378Z,13.17
2022-12-07T06:56:15.772Z,14.47
2022-12-07T06:58:43.117Z,14.63
2022-12-07T07:01:16.126Z,14.03
2022-12-07T07:03:43.999Z,13.83
2022-12-07T07:06:11.940Z,14.97
2022-12-07T07:08:39.935Z,13.47
2022-12-07T07:11:08.191Z,13.97
2022-12-07T07:13:35.356Z,14.60
2022-12-07T07:16:02.732Z,15.27
2022-12-07T07:18:30.427Z,15.70
2022-12-07T07:20:57.497Z,15.93
2022-12-07T07:23:25.044Z,14.47
2022-12-07T07:25:51.985Z,20.20
2022-12-07T07:28:19.412Z,19.23
2022-12-07T07:30:46.678Z,17.57
2022-12-07T07:33:13.987Z,19.10
2022-12-07T07:35:41.025Z,19.07
2022-12-07T07:38:08.730Z,17.17
2022-12-07T07:40:36.822Z,16.83
2022-12-07T07:43:03.964Z,14.27
2022-12-07T07:45:30.966Z,16.13
2022-12-07T07:47:58.368Z,14.03
2022-12-07T07:50:25.323Z,16.17
2022-12-07T07:52:52.476Z,13.97
2022-12-07T07:55:19.634Z,12.73
2022-12-07T07:57:52.881Z,18.67
2022-12-07T08:00:22.413Z,46.47
2022-12-07T08:02:49.737Z,26.00
2022-12-07T08:05:17.243Z,15.60
2022-12-07T08:07:44.896Z,16.00
2022-12-07T08:10:13.910Z,14.07
2022-12-07T08:13:02.495Z,13.90
2022-12-07T08:15:32.385Z,13.47
2022-12-07T08:18:00.205Z,14.73
2022-12-07T08:20:27.648Z,13.83
2022-12-07T08:22:55.232Z,13.73
2022-12-07T08:25:26.075Z,15.30
2022-12-07T08:27:53.756Z,13.20
2022-12-07T08:30:21.465Z,13.60
2022-12-07T08:32:49.788Z,13.80
2022-12-07T08:35:17.476Z,11.70
2022-12-07T08:37:44.831Z,13.53
2022-12-07T08:40:16.249Z,14.23
2022-12-07T08:42:50.898Z,12.80
2022-12-07T08:45:24.929Z,13.07
2022-12-07T08:47:58.706Z,15.13
2022-12-07T08:50:26.816Z,17.07
2022-12-07T08:52:56.383Z,15.43
2022-12-07T08:55:23.941Z,15.40
2022-12-07T08:57:51.690Z,14.57
2022-12-07T09:00:19.349Z,10.87
2022-12-07T09:02:47.505Z,11.10
2022-12-07T09:05:16.906Z,11.97
2022-12-07T09:07:52.860Z,10.33
2022-12-07T09:10:20.547Z,10.20
2022-12-07T09:12:47.889Z,10.43
2022-12-07T09:15:15.285Z,10.77
2022-12-07T09:17:42.728Z,10.97
2022-12-07T09:20:10.827Z,11.50
2022-12-07T09:22:38.190Z,11.47
2022-12-07T09:25:06.706Z,9.63
2022-12-07T09:27:34.109Z,10.27
2022-12-07T09:30:01.864Z,9.00
2022-12-07T09:32:29.393Z,9.27
2022-12-07T09:34:56.883Z,9.80
2022-12-07T09:37:24.271Z,8.63
2022-12-07T09:39:51.767Z,10.23
2022-12-07T09:42:31.441Z,8.50
2022-12-07T09:44:59.800Z,10.43
2022-12-07T09:47:27.814Z,9.80
2022-12-07T09:50:00.274Z,8.70
2022-12-07T09:52:32.954Z,9.07
2022-12-07T09:55:03.096Z,8.50
2022-12-07T09:57:32.858Z,8.70
2022-12-07T10:00:04.205Z,8.17
2022-12-07T10:02:39.628Z,8.33
2022-12-07T10:05:11.798Z,8.20
2022-12-07T10:07:39.463Z,7.83
2022-12-07T10:10:19.113Z,7.97
2022-12-07T10:13:04.526Z,8.37
2022-12-07T10:15:53.353Z,7.40
2022-12-07T10:18:33.720Z,7.10
2022-12-07T10:21:10.078Z,9.00
2022-12-07T10:24:03.801Z,7.87
2022-12-07T10:26:47.902Z,6.80
2022-12-07T10:29:20.186Z,8.17
2022-12-07T10:32:13.208Z,8.43
2022-12-07T10:34:42.837Z,7.80
2022-12-07T10:37:18.147Z,7.70
2022-12-07T10:39:52.153Z,7.63
2022-12-07T10:42:29.294Z,6.90
2022-12-07T10:45:26.121Z,6.27
2022-12-07T10:48:12.794Z,7.77
2022-12-07T10:51:21.981Z,6.37
2022-12-07T10:53:59.477Z,6.57
2022-12-07T10:56:51.122Z,4.87
2022-12-07T10:59:29.613Z,6.00
2022-12-07T11:02:22.766Z,5.57
2022-12-07T11:05:05.553Z,5.90
2022-12-07T11:08:11.092Z,5.30
2022-12-07T11:10:41.269Z,6.00
2022-12-07T11:13:29.357Z,6.43
2022-12-07T11:16:18.274Z,5.27
2022-12-07T11:19:00.439Z,6.00
2022-12-07T11:21:40.619Z,7.00
2022-12-07T11:24:11.538Z,6.90
2022-12-07T11:26:57.289Z,7.30
2022-12-07T11:29:46.208Z,6.33
2022-12-07T11:32:16.431Z,8.23
2022-12-07T11:34:55.624Z,8.47
2022-12-07T11:37:36.471Z,8.00
2022-12-07T11:40:21.816Z,5.83
2022-12-07T11:43:11.932Z,8.30
2022-12-07T11:45:43.307Z,7.50
2022-12-07T11:48:20.063Z,8.23
2022-12-07T11:50:51.409Z,14.23
2022-12-07T11:53:27.820Z,10.93
2022-12-07T11:56:15.060Z,9.03
2022-12-07T11:59:05.128Z,7.13
2022-12-07T12:01:34.732Z,6.27
2022-12-07T12:04:11.065Z,8.17
2022-12-07T12:06:43.680Z,6.23
2022-12-07T12:15:48.848Z,9.10
2022-12-07T12:18:22.325Z,7.07
2022-12-07T12:20:58.018Z,8.30
2022-12-07T12:23:57.912Z,7.23
2022-12-07T12:26:27.598Z,8.30
2022-12-07T12:29:01.983Z,8.77
2022-12-07T12:31:29.281Z,8.73
2022-12-07T12:33:59.389Z,7.20
2022-12-07T12:36:44.251Z,7.93
2022-12-07T12:39:17.615Z,10.60
2022-12-07T12:41:47.678Z,8.30
2022-12-07T12:44:20.769Z,7.30
2022-12-07T12:47:01.370Z,9.37
2022-12-07T12:49:33.641Z,8.43
2022-12-07T12:52:09.946Z,8.57
2022-12-07T12:54:37.952Z,8.80
2022-12-07T12:57:25.822Z,7.50
2022-12-07T12:59:53.066Z,6.57
2022-12-07T13:02:29.966Z,8.80
2022-12-07T13:05:01.394Z,7.93
2022-12-07T13:07:56.481Z,8.60
2022-12-07T13:10:33.420Z,8.97
2022-12-07T13:13:15.919Z,8.70
2022-12-07T13:15:54.933Z,9.80
2022-12-07T13:18:34.169Z,9.07
2022-12-07T13:21:10.602Z,9.50
2022-12-07T13:23:57.055Z,8.90
2022-12-07T13:26:43.332Z,9.17
2022-12-07T13:29:17.624Z,8.50
2022-12-07T13:31:52.925Z,8.80
2022-12-07T13:34:37.598Z,10.00
2022-12-07T13:37:26.073Z,8.60
2022-12-07T13:39:58.487Z,9.60
2022-12-07T13:42:29.637Z,9.23
2022-12-07T13:44:58.984Z,9.23
2022-12-07T13:47:53.050Z,9.30
2022-12-07T13:50:32.117Z,9.57
2022-12-07T13:53:01.601Z,9.57
2022-12-07T13:55:29.835Z,9.30
2022-12-07T13:57:58.043Z,9.23
2022-12-07T14:00:27.983Z,8.50
2022-12-07T14:03:01.413Z,11.40
2022-12-07T14:05:36.561Z,15.30
2022-12-07T14:08:11.828Z,10.53
2022-12-07T14:10:54.839Z,9.50
2022-12-07T14:13:35.839Z,10.53
2022-12-07T14:16:05.291Z,10.90
2022-12-07T14:18:41.120Z,11.90
2022-12-07T14:21:11.564Z,11.70
2022-12-07T14:23:40.461Z,12.10
2022-12-07T14:26:21.456Z,10.63
2022-12-07T14:28:49.181Z,10.50
2022-12-07T14:31:29.584Z,11.17
2022-12-07T14:34:01.134Z,9.53
2022-12-07T14:36:28.623Z,9.97
2022-12-07T14:38:58.941Z,11.30
2022-12-07T14:41:44.969Z,10.80
2022-12-07T14:44:35.255Z,9.63
2022-12-07T14:49:48.096Z,9.77
2022-12-07T14:55:30.732Z,10.77
2022-12-07T14:57:59.692Z,10.30
2022-12-07T15:00:28.690Z,18.57
2022-12-07T15:02:56.583Z,20.43
2022-12-07T15:05:24.381Z,17.03
2022-12-07T15:07:52.101Z,17.23
2022-12-07T15:10:24.421Z,14.57
2022-12-07T15:12:52.427Z,14.60
2022-12-07T15:15:19.815Z,13.80
2022-12-07T15:17:47.383Z,10.20
2022-12-07T15:20:17.653Z,10.93
2022-12-07T15:22:45.092Z,11.80
2022-12-07T15:25:14.778Z,10.80
2022-12-07T15:27:42.341Z,11.73
2022-12-07T15:30:09.935Z,12.50
2022-12-07T15:32:37.465Z,12.23
2022-12-07T15:35:05.591Z,11.87
2022-12-07T15:37:33.190Z,11.90
2022-12-07T15:40:07.150Z,11.17
2022-12-07T15:42:36.159Z,12.07
2022-12-07T15:45:05.139Z,15.00
2022-12-07T15:48:19.803Z,20.53
2022-12-07T15:50:31.426Z,14.10
2022-12-07T15:52:58.801Z,12.37
2022-12-07T15:55:26.132Z,12.87
2022-12-07T15:57:53.528Z,11.60
2022-12-07T16:00:21.306Z,10.33
2022-12-07T16:02:48.762Z,11.10
2022-12-07T16:05:16.202Z,10.23
2022-12-07T16:07:43.765Z,14.33
2022-12-07T16:10:11.323Z,14.00
2022-12-07T16:12:38.588Z,12.10
2022-12-07T16:15:06.772Z,12.83
2022-12-07T16:17:34.198Z,13.67
2022-12-07T16:20:01.515Z,15.33
2022-12-07T16:22:28.861Z,14.63
2022-12-07T16:24:56.215Z,13.33
2022-12-07T16:27:23.490Z,14.37
2022-12-07T16:29:50.856Z,15.27
2022-12-07T16:32:18.208Z,16.60
2022-12-07T16:34:45.538Z,15.83
2022-12-07T16:37:12.904Z,18.10
2022-12-07T16:39:40.496Z,18.03
2022-12-07T16:42:07.810Z,15.43
2022-12-07T16:44:35.099Z,16.97
2022-12-07T16:47:02.660Z,14.80
2022-12-07T16:49:30.189Z,15.00
2022-12-07T16:52:18.808Z,15.60
2022-12-07T16:54:45.664Z,15.73
2022-12-07T16:57:16.770Z,14.63
2022-12-07T16:59:49.088Z,16.17
2022-12-07T17:02:16.452Z,14.63
2022-12-07T17:04:43.804Z,16.10
2022-12-07T17:07:11.753Z,17.30
2022-12-07T17:09:39.095Z,17.07
2022-12-07T17:12:07.678Z,14.90
2022-12-07T17:14:53.461Z,15.20
2022-12-07T17:17:20.935Z,14.03
2022-12-07T17:19:48.303Z,17.97
2022-12-07T17:22:15.631Z,17.60
2022-12-07T17:24:42.999Z,16.77
2022-12-07T17:27:10.307Z,17.87
2022-12-07T17:29:37.761Z,19.77
2022-12-07T17:32:05.811Z,19.80
2022-12-07T17:34:33.882Z,17.27
2022-12-07T17:37:01.248Z,24.63
2022-12-07T17:39:28.880Z,20.40
2022-12-07T17:42:14.737Z,19.10
2022-12-07T17:44:42.651Z,17.67
2022-12-07T17:47:11.267Z,15.33
2022-12-07T17:49:38.638Z,15.27
2022-12-07T17:52:24.531Z,15.23
2022-12-07T17:54:51.849Z,14.20
2022-12-07T17:57:19.347Z,12.53
2022-12-07T17:59:46.741Z,15.70
2022-12-07T18:02:14.092Z,15.60
2022-12-07T18:04:44.198Z,13.77
2022-12-07T18:07:11.726Z,15.00
2022-12-07T18:09:39.243Z,15.03
2022-12-07T18:12:07.136Z,15.07
2022-12-07T18:14:34.682Z,17.03
2022-12-07T18:17:02.343Z,16.17
2022-12-07T18:19:29.963Z,15.57
2022-12-07T18:21:57.352Z,17.30
2022-12-07T18:24:24.791Z,18.93
2022-12-07T18:26:53.297Z,18.77
2022-12-07T18:29:21.428Z,17.10
2022-12-07T18:31:48.845Z,16.30
2022-12-07T18:34:17.822Z,15.40
2022-12-07T18:36:47.456Z,16.13
2022-12-07T18:39:15.837Z,16.77
2022-12-07T18:41:43.679Z,15.37
2022-12-07T18:44:13.417Z,17.53
2022-12-07T18:46:42.413Z,15.90
2022-12-07T18:49:12.316Z,21.93
2022-12-07T18:51:39.809Z,16.70
2022-12-07T18:54:07.632Z,21.20
2022-12-07T18:56:35.047Z,22.30
2022-12-07T18:59:22.023Z,17.80
2022-12-07T19:01:51.641Z,18.33
2022-12-07T19:04:19.079Z,18.67
2022-12-07T19:06:48.261Z,19.70
2022-12-07T19:09:16.617Z,17.97
2022-12-07T19:11:50.239Z,19.20
2022-12-07T19:14:27.584Z,18.17
2022-12-07T19:16:57.362Z,18.30
2022-12-07T19:19:30.458Z,18.60
2022-12-07T19:21:57.991Z,18.47
2022-12-07T19:24:25.361Z,18.83
2022-12-07T19:26:53.117Z,20.70
2022-12-07T19:29:20.710Z,19.63
2022-12-07T19:31:48.167Z,20.57
2022-12-07T19:34:17.561Z,21.47
2022-12-07T19:36:45.687Z,21.80
2022-12-07T19:39:15.561Z,20.43
2022-12-07T19:41:44.701Z,17.47
2022-12-07T19:44:18.175Z,21.17
2022-12-07T19:46:47.307Z,23.40
2022-12-07T19:49:16.179Z,22.80
2022-12-07T19:51:45.309Z,20.87
2022-12-07T19:54:14.868Z,22.70
2022-12-07T19:56:43.520Z,20.63
2022-12-07T19:59:12.163Z,20.60
2022-12-07T20:01:42.768Z,20.50
2022-12-07T20:04:13.014Z,23.47
2022-12-07T20:06:40.544Z,23.53
2022-12-07T20:09:07.957Z,24.90
2022-12-07T20:11:55.319Z,23.03
2022-12-07T20:14:23.015Z,23.57
2022-12-07T20:16:50.613Z,26.13
2022-12-07T20:19:18.687Z,21.40
2022-12-07T20:21:46.576Z,21.10
2022-12-07T20:24:22.715Z,23.60
2022-12-07T20:26:51.190Z,20.23
2022-12-07T20:29:21.616Z,20.70
2022-12-07T20:31:49.622Z,22.70
2022-12-07T20:34:17.382Z,22.00
2022-12-07T20:36:44.766Z,20.57
2022-12-07T20:39:12.514Z,21.80
2022-12-07T20:41:58.944Z,19.17
2022-12-07T20:44:26.353Z,19.73
2022-12-07T20:46:53.695Z,17.73
2022-12-07T20:49:21.265Z,17.97
2022-12-07T20:51:48.760Z,19.20
2022-12-07T20:54:16.263Z,19.00
2022-12-07T20:56:43.592Z,18.67
2022-12-07T20:59:14.553Z,18.20
2022-12-07T21:01:42.773Z,20.00
2022-12-07T21:04:12.537Z,21.57
2022-12-07T21:06:39.976Z,20.40
2022-12-07T21:09:07.661Z,20.00
2022-12-07T21:11:35.079Z,18.03
2022-12-07T21:14:02.498Z,21.00
2022-12-07T21:16:31.068Z,17.50
2022-12-07T21:19:02.468Z,19.83
2022-12-07T21:21:31.002Z,20.33
2022-12-07T21:24:02.443Z,19.57
2022-12-07T21:26:30.703Z,19.07
2022-12-07T21:28:58.382Z,18.20
2022-12-07T21:31:26.849Z,18.67
2022-12-07T21:33:54.367Z,19.47
2022-12-07T21:36:23.711Z,17.10
2022-12-07T21:38:51.576Z,17.93
2022-12-07T21:41:23.105Z,19.17
2022-12-07T21:43:50.910Z,19.00
2022-12-07T21:46:19.212Z,19.00
2022-12-07T21:48:54.467Z,20.40
2022-12-07T21:51:23.612Z,20.00
2022-12-07T21:53:52.511Z,22.00
2022-12-07T21:56:22.723Z,21.67
2022-12-07T21:58:51.079Z,20.30
2022-12-07T22:01:20.293Z,20.07
2022-12-07T22:03:48.213Z,16.00
2022-12-07T22:06:17.144Z,19.33
2022-12-07T22:08:44.607Z,17.47
2022-12-07T22:11:13.083Z,17.87
2022-12-07T22:14:04.134Z,17.33
2022-12-07T22:16:34.967Z,15.40
2022-12-07T22:19:02.652Z,18.83
2022-12-07T22:21:30.852Z,19.60
2022-12-07T22:23:58.291Z,21.50
2022-12-07T22:26:25.939Z,20.10
2022-12-07T22:28:53.507Z,19.23
2022-12-07T22:31:21.358Z,20.90
2022-12-07T22:33:49.011Z,21.07
2022-12-07T22:36:16.701Z,20.93
2022-12-07T22:38:44.274Z,22.67
2022-12-07T22:41:15.549Z,22.07
2022-12-07T22:43:42.897Z,21.83
2022-12-07T22:46:10.313Z,22.73
2022-12-07T22:48:37.885Z,19.63
2022-12-07T22:51:05.273Z,19.00
2022-12-07T22:53:32.653Z,21.03
2022-12-07T22:56:00.042Z,18.77
2022-12-07T22:58:27.385Z,20.83
2022-12-07T23:00:55.793Z,20.63
2022-12-07T23:03:23.327Z,20.77
2022-12-07T23:05:52.182Z,21.63
2022-12-07T23:08:19.577Z,22.87
2022-12-07T23:10:48.551Z,22.10
2022-12-07T23:13:32.752Z,21.33
2022-12-07T23:16:11.544Z,18.00
2022-12-07T23:18:40.277Z,20.53
2022-12-07T23:21:08.446Z,17.53
2022-12-07T23:23:35.839Z,20.43
2022-12-07T23:26:08.386Z,18.47
2022-12-07T23:28:36.512Z,16.83
2022-12-07T23:31:10.807Z,14.90
2022-12-07T23:33:38.249Z,13.87
2022-12-07T23:36:16.691Z,16.07
2022-12-07T23:38:45.663Z,15.00
2022-12-07T23:41:15.561Z,13.90
2022-12-07T23:43:43.349Z,12.77
2022-12-07T23:46:12.870Z,14.40
2022-12-07T23:48:40.825Z,12.70
2022-12-07T23:51:09.320Z,14.20
2022-12-07T23:53:38.755Z,15.50
2022-12-07T23:56:06.415Z,15.97
2022-12-07T23:58:34.133Z,17.67
